createdAt,value
2019-04-07T00:01:48.471Z,6.30
2019-04-07T00:04:14.921Z,6.73
2019-04-07T00:06:41.629Z,7.03
2019-04-07T00:09:08.060Z,7.27
2019-04-07T00:11:34.609Z,7.07
2019-04-07T00:14:01.186Z,6.80
2019-04-07T00:16:27.655Z,6.23
2019-04-07T00:18:54.541Z,6.83
2019-04-07T00:21:21.096Z,7.30
2019-04-07T00:23:47.845Z,6.87
2019-04-07T00:26:14.316Z,7.67
2019-04-07T00:28:40.818Z,7.73
2019-04-07T00:31:07.344Z,8.33
2019-04-07T00:33:33.835Z,7.40
2019-04-07T00:36:00.886Z,7.10
2019-04-07T00:38:27.502Z,6.97
2019-04-07T00:40:54.258Z,6.60
2019-04-07T00:43:20.900Z,6.93
2019-04-07T00:45:48.112Z,6.83
2019-04-07T00:48:14.691Z,6.73
2019-04-07T00:50:41.216Z,7.33
2019-04-07T00:53:07.839Z,7.23
2019-04-07T00:55:34.549Z,7.43
2019-04-07T00:58:01.112Z,7.90
2019-04-07T01:00:29.482Z,7.47
2019-04-07T01:02:59.420Z,7.37
2019-04-07T01:05:35.586Z,7.90
2019-04-07T01:07:54.303Z,8.03
2019-04-07T01:10:20.786Z,8.80
2019-04-07T01:12:47.163Z,10.07
2019-04-07T01:15:14.054Z,9.20
2019-04-07T01:17:40.731Z,9.23
2019-04-07T01:20:08.904Z,10.47
2019-04-07T01:22:36.312Z,9.07
2019-04-07T01:25:03.977Z,9.90
2019-04-07T01:27:31.124Z,10.30
2019-04-07T01:29:57.535Z,9.97
2019-04-07T01:32:24.134Z,9.90
2019-04-07T01:34:53.569Z,9.37
2019-04-07T01:37:20.040Z,10.40
2019-04-07T01:39:47.047Z,9.97
2019-04-07T01:42:16.087Z,9.90
2019-04-07T01:44:44.611Z,9.30
2019-04-07T01:47:13.473Z,8.87
2019-04-07T01:49:42.344Z,8.73
2019-04-07T01:52:09.777Z,6.37
2019-04-07T01:54:38.403Z,7.13
2019-04-07T01:57:06.841Z,7.57
2019-04-07T01:59:35.516Z,8.20
2019-04-07T02:02:04.631Z,9.03
2019-04-07T02:04:33.418Z,9.70
2019-04-07T02:07:01.948Z,9.50
2019-04-07T02:09:28.996Z,10.17
2019-04-07T02:11:57.443Z,9.27
2019-04-07T02:14:25.732Z,9.77
2019-04-07T02:16:54.339Z,9.57
2019-04-07T02:19:22.774Z,9.07
2019-04-07T02:21:51.525Z,8.73
2019-04-07T02:24:20.289Z,8.03
2019-04-07T02:26:48.695Z,8.23
2019-04-07T02:29:16.175Z,8.37
2019-04-07T02:31:45.081Z,8.67
2019-04-07T02:34:13.557Z,10.17
2019-04-07T02:36:40.790Z,9.90
2019-04-07T02:39:09.528Z,10.10
2019-04-07T02:41:37.998Z,9.70
2019-04-07T02:44:06.878Z,10.40
2019-04-07T02:46:36.597Z,9.63
2019-04-07T02:49:05.900Z,8.90
2019-04-07T02:51:34.277Z,8.93
2019-04-07T02:54:00.838Z,9.87
2019-04-07T02:56:29.390Z,9.53
2019-04-07T02:58:58.121Z,10.40
2019-04-07T03:01:27.700Z,10.30
2019-04-07T03:03:55.563Z,10.07
2019-04-07T03:06:37.487Z,9.87
2019-04-07T03:08:57.262Z,10.33
2019-04-07T03:11:25.696Z,10.07
2019-04-07T03:13:54.378Z,10.63
2019-04-07T03:16:22.845Z,10.07
2019-04-07T03:18:51.119Z,11.00
2019-04-07T03:21:19.757Z,10.33
2019-04-07T03:23:48.658Z,10.83
2019-04-07T03:26:24.063Z,9.63
2019-04-07T03:28:52.580Z,10.13
2019-04-07T03:31:21.651Z,10.50
2019-04-07T03:33:49.730Z,9.80
2019-04-07T03:36:20.860Z,9.07
2019-04-07T03:38:48.318Z,9.23
2019-04-07T03:41:16.792Z,8.53
2019-04-07T03:43:46.340Z,8.87
2019-04-07T03:46:12.839Z,10.00
2019-04-07T03:48:41.644Z,9.73
2019-04-07T03:51:11.050Z,8.33
2019-04-07T03:53:39.704Z,9.23
2019-04-07T03:56:08.248Z,8.97
2019-04-07T03:58:37.473Z,9.33
2019-04-07T04:01:15.705Z,9.00
2019-04-07T04:03:44.139Z,9.50
2019-04-07T04:06:12.818Z,9.97
2019-04-07T04:08:41.764Z,10.07
2019-04-07T04:11:10.240Z,9.20
2019-04-07T04:13:38.493Z,9.73
2019-04-07T04:16:06.225Z,10.20
2019-04-07T04:18:32.639Z,10.00
2019-04-07T04:20:59.607Z,9.43
2019-04-07T04:23:26.152Z,9.57
2019-04-07T04:25:53.643Z,9.70
2019-04-07T04:28:20.414Z,10.47
2019-04-07T04:30:46.881Z,10.50
2019-04-07T04:33:13.274Z,10.63
2019-04-07T04:35:39.653Z,11.57
2019-04-07T04:38:06.197Z,10.80
2019-04-07T04:40:32.571Z,10.57
2019-04-07T04:42:59.124Z,9.63
2019-04-07T04:45:26.291Z,8.83
2019-04-07T04:47:53.691Z,9.70
2019-04-07T04:50:21.095Z,10.53
2019-04-07T04:52:47.570Z,11.27
2019-04-07T04:55:14.133Z,10.73
2019-04-07T04:57:40.747Z,10.83
2019-04-07T05:00:07.465Z,10.37
2019-04-07T05:02:34.688Z,10.70
2019-04-07T05:05:02.497Z,11.37
2019-04-07T05:07:30.054Z,10.20
2019-04-07T05:09:57.532Z,10.50
2019-04-07T05:12:24.414Z,10.23
2019-04-07T05:14:50.958Z,9.93
2019-04-07T05:17:17.400Z,9.87
2019-04-07T05:19:44.358Z,9.63
2019-04-07T05:22:11.315Z,10.17
2019-04-07T05:24:37.822Z,10.37
2019-04-07T05:27:04.206Z,9.47
2019-04-07T05:29:31.188Z,9.33
2019-04-07T05:31:57.671Z,8.97
2019-04-07T05:34:24.140Z,9.60
2019-04-07T05:36:51.227Z,9.43
2019-04-07T05:39:17.699Z,8.60
2019-04-07T05:41:46.526Z,8.67
2019-04-07T05:44:13.537Z,8.73
2019-04-07T05:46:42.455Z,9.10
2019-04-07T05:49:08.286Z,8.37
2019-04-07T05:51:34.651Z,8.13
2019-04-07T05:54:01.345Z,8.40
2019-04-07T05:56:28.446Z,8.97
2019-04-07T05:58:54.937Z,8.67
2019-04-07T06:01:23.365Z,9.00
2019-04-07T06:03:49.791Z,8.50
2019-04-07T06:06:16.241Z,9.63
2019-04-07T06:08:42.653Z,9.50
2019-04-07T06:11:09.175Z,9.87
2019-04-07T06:13:35.601Z,8.80
2019-04-07T06:16:02.132Z,8.97
2019-04-07T06:18:31.948Z,8.70
2019-04-07T06:20:57.014Z,8.80
2019-04-07T06:23:25.780Z,8.50
2019-04-07T06:25:52.290Z,8.67
2019-04-07T06:28:19.266Z,8.73
2019-04-07T06:30:46.193Z,8.93
2019-04-07T06:33:13.262Z,8.40
2019-04-07T06:35:43.789Z,8.23
2019-04-07T06:38:08.947Z,8.43
2019-04-07T06:40:35.433Z,8.37
2019-04-07T06:43:05.264Z,7.77
2019-04-07T06:45:33.281Z,7.77
2019-04-07T06:48:06.901Z,7.90
2019-04-07T06:50:32.313Z,7.17
2019-04-07T06:53:00.738Z,7.10
2019-04-07T06:55:30.092Z,6.37
2019-04-07T06:57:59.463Z,7.10
2019-04-07T07:00:28.042Z,7.30
2019-04-07T07:02:56.565Z,6.30
2019-04-07T07:05:25.071Z,6.97
2019-04-07T07:07:54.205Z,7.50
2019-04-07T07:10:28.964Z,6.33
2019-04-07T07:12:53.393Z,5.87
2019-04-07T07:15:21.772Z,5.83
2019-04-07T07:17:51.069Z,5.03
2019-04-07T07:20:21.143Z,5.70
2019-04-07T07:22:50.780Z,5.27
2019-04-07T07:25:18.068Z,4.13
2019-04-07T07:27:44.540Z,3.90
2019-04-07T07:30:12.102Z,3.90
2019-04-07T07:32:38.953Z,3.97
2019-04-07T07:35:06.316Z,3.80
2019-04-07T07:37:33.349Z,4.10
2019-04-07T07:40:00.974Z,4.70
2019-04-07T07:42:27.782Z,4.20
2019-04-07T07:44:54.361Z,4.10
2019-04-07T07:47:22.598Z,4.67
2019-04-07T07:49:49.737Z,4.00
2019-04-07T07:52:19.426Z,3.83
2019-04-07T07:54:46.091Z,4.13
2019-04-07T07:57:13.374Z,4.33
2019-04-07T07:59:40.434Z,4.07
2019-04-07T08:02:07.592Z,4.20
2019-04-07T08:04:34.594Z,3.67
2019-04-07T08:07:02.573Z,3.90
2019-04-07T08:09:29.196Z,3.60
2019-04-07T08:11:55.643Z,4.30
2019-04-07T08:14:22.681Z,4.33
2019-04-07T08:16:50.099Z,4.17
2019-04-07T08:19:16.849Z,3.87
2019-04-07T08:21:43.645Z,4.03
2019-04-07T08:24:11.889Z,3.60
2019-04-07T08:26:40.419Z,3.77
2019-04-07T08:29:07.757Z,4.47
2019-04-07T08:31:34.911Z,4.03
2019-04-07T08:34:02.237Z,3.47
2019-04-07T08:36:29.145Z,4.50
2019-04-07T08:38:56.983Z,3.50
2019-04-07T08:41:24.468Z,3.83
2019-04-07T08:43:54.156Z,3.85
2019-04-07T08:46:20.003Z,3.70
2019-04-07T08:48:49.684Z,3.55
2019-04-07T08:51:15.689Z,3.55
2019-04-07T08:53:44.220Z,3.80
2019-04-07T08:56:10.872Z,4.70
2019-04-07T08:58:38.899Z,4.00
2019-04-07T09:01:06.409Z,3.40
2019-04-07T09:03:33.194Z,3.80
2019-04-07T09:05:59.871Z,3.60
2019-04-07T09:08:26.357Z,4.37
2019-04-07T09:10:54.961Z,3.37
2019-04-07T09:13:22.391Z,3.27
2019-04-07T09:15:50.939Z,4.30
2019-04-07T09:18:19.125Z,3.83
2019-04-07T09:20:49.309Z,3.72
2019-04-07T09:23:17.864Z,3.77
2019-04-07T09:25:46.709Z,3.80
2019-04-07T09:28:15.113Z,3.50
2019-04-07T09:30:43.363Z,3.22
2019-04-07T09:33:12.512Z,3.50
2019-04-07T09:35:41.307Z,3.95
2019-04-07T09:38:10.998Z,7.83
2019-04-07T09:40:39.458Z,3.70
2019-04-07T09:43:08.090Z,3.72
2019-04-07T09:45:38.584Z,3.12
2019-04-07T09:48:04.870Z,3.27
2019-04-07T09:50:33.228Z,4.25
2019-04-07T09:53:01.638Z,3.05
2019-04-07T09:55:30.752Z,3.05
2019-04-07T09:58:02.293Z,3.02
2019-04-07T10:00:30.997Z,3.58
2019-04-07T10:03:00.251Z,3.70
2019-04-07T10:05:30.842Z,3.37
2019-04-07T10:07:59.359Z,3.00
2019-04-07T10:10:28.559Z,3.27
2019-04-07T10:12:57.596Z,2.87
2019-04-07T10:15:26.044Z,3.25
2019-04-07T10:17:52.527Z,3.10
2019-04-07T10:20:22.331Z,3.30
2019-04-07T10:22:51.557Z,3.00
2019-04-07T10:25:20.035Z,4.28
2019-04-07T10:27:48.743Z,3.70
2019-04-07T10:30:17.779Z,3.40
2019-04-07T10:32:46.333Z,3.30
2019-04-07T10:35:14.717Z,3.25
2019-04-07T10:37:43.927Z,2.95
2019-04-07T10:40:19.518Z,3.30
2019-04-07T10:42:43.770Z,3.15
2019-04-07T10:45:12.239Z,3.05
2019-04-07T10:47:41.195Z,2.98
2019-04-07T10:50:15.473Z,2.72
2019-04-07T10:52:43.869Z,3.12
2019-04-07T10:55:10.439Z,3.33
2019-04-07T10:57:38.911Z,2.98
2019-04-07T11:00:09.033Z,3.12
2019-04-07T11:02:37.359Z,3.25
2019-04-07T11:05:07.071Z,3.65
2019-04-07T11:07:35.514Z,3.33
2019-04-07T11:10:04.875Z,3.47
2019-04-07T11:12:33.193Z,3.20
2019-04-07T11:15:02.458Z,3.40
2019-04-07T11:17:31.546Z,3.20
2019-04-07T11:19:59.967Z,3.35
2019-04-07T11:22:37.068Z,3.65
2019-04-07T11:25:05.473Z,3.85
2019-04-07T11:27:33.965Z,3.42
2019-04-07T11:30:02.354Z,3.35
2019-04-07T11:32:30.785Z,3.10
2019-04-07T11:34:59.524Z,3.02
2019-04-07T11:37:29.120Z,2.70
2019-04-07T11:39:57.781Z,3.10
2019-04-07T11:42:26.309Z,2.85
2019-04-07T11:44:54.604Z,2.80
2019-04-07T11:47:23.139Z,2.75
2019-04-07T11:49:51.568Z,3.00
2019-04-07T11:52:20.064Z,3.22
2019-04-07T11:54:49.197Z,3.20
2019-04-07T11:57:17.691Z,2.52
2019-04-07T11:59:46.011Z,2.40
2019-04-07T12:02:18.573Z,2.10
2019-04-07T12:04:44.727Z,2.87
2019-04-07T12:07:12.975Z,2.45
2019-04-07T12:09:39.610Z,2.42
2019-04-07T12:12:08.035Z,2.35
2019-04-07T12:14:37.334Z,2.37
2019-04-07T12:17:08.709Z,2.70
2019-04-07T12:19:36.732Z,1.98
2019-04-07T12:22:08.730Z,2.65
2019-04-07T12:24:35.413Z,2.22
2019-04-07T12:27:04.771Z,2.50
2019-04-07T12:29:34.232Z,2.25
2019-04-07T12:32:02.712Z,2.37
2019-04-07T12:34:31.063Z,2.20
2019-04-07T12:37:04.024Z,2.15
2019-04-07T12:39:36.112Z,2.02
2019-04-07T12:42:06.357Z,2.47
2019-04-07T12:44:36.440Z,2.35
2019-04-07T12:47:04.945Z,2.20
2019-04-07T12:49:35.250Z,2.50
2019-04-07T12:52:04.303Z,2.20
2019-04-07T12:54:33.067Z,2.52
2019-04-07T12:57:03.705Z,2.08
2019-04-07T12:59:29.741Z,2.65
2019-04-07T13:02:05.368Z,2.08
2019-04-07T13:04:31.798Z,2.27
2019-04-07T13:07:00.318Z,2.30
2019-04-07T13:09:32.115Z,2.40
2019-04-07T13:11:59.031Z,2.00
2019-04-07T13:14:27.324Z,2.22
2019-04-07T13:16:58.810Z,2.30
2019-04-07T13:19:38.489Z,2.30
2019-04-07T13:22:07.925Z,2.25
2019-04-07T13:24:39.062Z,2.08
2019-04-07T13:27:06.349Z,2.02
2019-04-07T13:29:34.719Z,2.17
2019-04-07T13:32:03.350Z,1.92
2019-04-07T13:34:31.888Z,2.20
2019-04-07T13:37:00.256Z,3.67
2019-04-07T13:39:29.202Z,2.87
2019-04-07T13:41:57.857Z,2.62
2019-04-07T13:44:27.108Z,2.15
2019-04-07T13:46:54.318Z,2.10
2019-04-07T13:49:27.266Z,3.35
2019-04-07T13:51:52.987Z,3.52
2019-04-07T13:54:22.148Z,2.20
2019-04-07T13:56:52.192Z,2.58
2019-04-07T13:59:24.752Z,2.25
2019-04-07T14:01:54.569Z,1.90
2019-04-07T14:04:25.350Z,1.82
2019-04-07T14:06:54.428Z,2.25
2019-04-07T14:09:22.902Z,2.33
2019-04-07T14:12:03.177Z,2.33
2019-04-07T14:14:22.262Z,2.05
2019-04-07T14:16:51.841Z,2.30
2019-04-07T14:19:18.900Z,2.22
2019-04-07T14:21:48.177Z,2.45
2019-04-07T14:24:14.758Z,2.30
2019-04-07T14:26:43.459Z,2.10
2019-04-07T14:29:12.017Z,2.00
2019-04-07T14:31:41.219Z,2.10
2019-04-07T14:34:09.699Z,2.98
2019-04-07T14:36:37.971Z,2.15
2019-04-07T14:39:08.480Z,2.27
2019-04-07T14:41:36.827Z,2.12
2019-04-07T14:44:07.221Z,2.25
2019-04-07T14:46:33.796Z,2.30
2019-04-07T14:49:02.252Z,2.33
2019-04-07T14:51:33.978Z,2.65
2019-04-07T14:54:02.964Z,2.12
2019-04-07T14:56:34.165Z,2.25
2019-04-07T14:59:01.800Z,2.10
2019-04-07T15:01:30.401Z,2.40
2019-04-07T15:03:56.801Z,2.10
2019-04-07T15:06:23.956Z,2.50
2019-04-07T15:08:53.365Z,2.50
2019-04-07T15:11:20.831Z,2.50
2019-04-07T15:13:47.477Z,2.50
2019-04-07T15:16:13.970Z,2.50
2019-04-07T15:18:41.099Z,2.25
2019-04-07T15:21:07.965Z,2.12
2019-04-07T15:23:34.482Z,2.52
2019-04-07T15:26:00.933Z,2.50
2019-04-07T15:28:29.985Z,2.40
2019-04-07T15:30:56.737Z,2.30
2019-04-07T15:33:24.173Z,2.30
2019-04-07T15:35:50.778Z,2.62
2019-04-07T15:38:17.272Z,2.22
2019-04-07T15:40:44.769Z,2.60
2019-04-07T15:43:12.338Z,3.52
2019-04-07T15:45:39.725Z,2.60
2019-04-07T15:48:08.191Z,2.60
2019-04-07T15:50:35.449Z,2.12
2019-04-07T15:53:02.754Z,2.75
2019-04-07T15:55:43.168Z,2.80
2019-04-07T15:57:59.344Z,2.55
2019-04-07T16:00:25.907Z,2.47
2019-04-07T16:02:53.583Z,2.45
2019-04-07T16:05:21.337Z,2.35
2019-04-07T16:07:48.173Z,2.55
2019-04-07T16:10:14.766Z,2.50
2019-04-07T16:12:47.424Z,2.80
2019-04-07T16:15:09.741Z,3.60
2019-04-07T16:17:37.194Z,2.80
2019-04-07T16:20:05.824Z,2.70
2019-04-07T16:22:32.202Z,2.45
2019-04-07T16:24:59.332Z,2.47
2019-04-07T16:27:26.079Z,2.08
2019-04-07T16:29:52.626Z,3.12
2019-04-07T16:32:19.625Z,2.40
2019-04-07T16:34:46.361Z,2.80
2019-04-07T16:37:13.642Z,2.17
2019-04-07T16:39:40.257Z,2.10
2019-04-07T16:42:06.737Z,3.00
2019-04-07T16:44:36.234Z,2.58
2019-04-07T16:47:04.046Z,2.12
2019-04-07T16:49:31.552Z,3.70
2019-04-07T16:52:00.762Z,2.37
2019-04-07T16:54:26.670Z,2.30
2019-04-07T16:56:56.131Z,4.15
2019-04-07T16:59:22.040Z,3.00
2019-04-07T17:01:48.562Z,2.42
2019-04-07T17:04:15.843Z,4.35
2019-04-07T17:06:42.410Z,3.22
2019-04-07T17:09:11.075Z,2.67
2019-04-07T17:11:39.788Z,2.40
2019-04-07T17:14:05.928Z,2.90
2019-04-07T17:16:32.407Z,3.12
2019-04-07T17:18:58.827Z,3.58
2019-04-07T17:21:25.565Z,6.72
2019-04-07T17:23:55.331Z,5.67
2019-04-07T17:26:22.741Z,4.17
2019-04-07T17:28:49.970Z,3.67
2019-04-07T17:31:17.584Z,3.15
2019-04-07T17:33:44.203Z,2.72
2019-04-07T17:36:15.447Z,3.42
2019-04-07T17:38:41.075Z,2.83
2019-04-07T17:41:09.069Z,2.87
2019-04-07T17:43:47.347Z,3.00
2019-04-07T17:46:08.427Z,3.05
2019-04-07T17:48:44.920Z,3.35
2019-04-07T17:51:10.249Z,2.90
2019-04-07T17:53:39.022Z,3.52
2019-04-07T17:56:07.415Z,3.08
2019-04-07T17:58:36.715Z,2.83
2019-04-07T18:01:06.233Z,3.92
2019-04-07T18:03:36.654Z,3.35
2019-04-07T18:06:05.785Z,2.85
2019-04-07T18:08:35.124Z,2.92
2019-04-07T18:11:02.564Z,2.40
2019-04-07T18:13:43.421Z,3.00
2019-04-07T18:16:01.249Z,3.00
2019-04-07T18:18:30.323Z,3.60
2019-04-07T18:20:59.457Z,3.50
2019-04-07T18:23:27.895Z,3.10
2019-04-07T18:25:56.841Z,3.73
2019-04-07T18:28:26.095Z,3.63
2019-04-07T18:30:54.487Z,3.10
2019-04-07T18:33:22.915Z,4.03
2019-04-07T18:35:52.140Z,3.83
2019-04-07T18:38:20.743Z,3.80
2019-04-07T18:40:49.528Z,3.37
2019-04-07T18:43:19.898Z,3.73
2019-04-07T18:45:51.307Z,3.50
2019-04-07T18:48:18.101Z,3.87
2019-04-07T18:50:46.887Z,3.60
2019-04-07T18:53:16.710Z,3.40
2019-04-07T18:55:45.301Z,3.20
2019-04-07T18:58:15.410Z,4.10
2019-04-07T19:00:43.800Z,8.03
2019-04-07T19:03:22.580Z,5.47
2019-04-07T19:05:52.798Z,6.13
2019-04-07T19:08:21.669Z,5.53
2019-04-07T19:10:51.560Z,5.93
2019-04-07T19:13:24.771Z,4.77
2019-04-07T19:15:51.274Z,4.53
2019-04-07T19:18:20.408Z,4.27
2019-04-07T19:20:48.744Z,3.80
2019-04-07T19:23:17.168Z,3.73
2019-04-07T19:25:47.602Z,3.37
2019-04-07T19:28:15.850Z,3.60
2019-04-07T19:30:45.357Z,3.27
2019-04-07T19:33:12.507Z,2.83
2019-04-07T19:35:42.044Z,2.87
2019-04-07T19:38:23.371Z,3.27
2019-04-07T19:40:55.207Z,3.20
2019-04-07T19:43:24.113Z,3.17
2019-04-07T19:45:54.885Z,3.23
2019-04-07T19:48:23.271Z,3.50
2019-04-07T19:50:54.943Z,3.20
2019-04-07T19:53:22.473Z,3.53
2019-04-07T19:55:54.655Z,4.07
2019-04-07T19:58:21.809Z,4.60
2019-04-07T20:00:53.217Z,4.77
2019-04-07T20:03:22.140Z,5.00
2019-04-07T20:05:53.365Z,5.53
2019-04-07T20:08:22.720Z,5.87
2019-04-07T20:10:52.335Z,5.53
2019-04-07T20:13:24.469Z,4.47
2019-04-07T20:15:55.916Z,4.50
2019-04-07T20:18:25.535Z,4.23
2019-04-07T20:20:51.459Z,4.33
2019-04-07T20:23:20.127Z,4.57
2019-04-07T20:25:49.274Z,4.37
2019-04-07T20:28:17.670Z,4.17
2019-04-07T20:30:48.420Z,3.93
2019-04-07T20:33:16.409Z,5.27
2019-04-07T20:35:44.927Z,5.67
2019-04-07T20:38:13.179Z,4.77
2019-04-07T20:40:45.142Z,5.43
2019-04-07T20:43:12.324Z,5.80
2019-04-07T20:45:38.887Z,6.93
2019-04-07T20:48:07.338Z,5.30
2019-04-07T20:50:35.865Z,6.00
2019-04-07T20:53:12.690Z,6.17
2019-04-07T20:55:37.410Z,6.83
2019-04-07T20:58:16.258Z,5.50
2019-04-07T21:00:38.182Z,5.90
2019-04-07T21:03:15.225Z,6.00
2019-04-07T21:05:36.477Z,5.93
2019-04-07T21:08:04.859Z,5.80
2019-04-07T21:10:33.245Z,5.30
2019-04-07T21:13:02.317Z,5.47
2019-04-07T21:15:31.122Z,5.23
2019-04-07T21:18:00.176Z,5.90
2019-04-07T21:20:28.868Z,6.83
2019-04-07T21:22:57.318Z,7.47
2019-04-07T21:25:26.451Z,6.93
2019-04-07T21:27:57.734Z,6.43
2019-04-07T21:30:26.990Z,7.03
2019-04-07T21:32:55.407Z,7.17
2019-04-07T21:35:23.823Z,7.50
2019-04-07T21:37:50.195Z,6.93
2019-04-07T21:40:16.546Z,7.90
2019-04-07T21:42:45.802Z,8.10
2019-04-07T21:45:14.795Z,6.93
2019-04-07T21:47:44.053Z,6.87
2019-04-07T21:50:12.753Z,6.33
2019-04-07T21:52:41.158Z,6.30
2019-04-07T21:55:11.702Z,5.80
2019-04-07T21:57:40.659Z,6.30
2019-04-07T22:00:10.493Z,6.53
2019-04-07T22:02:42.243Z,6.20
2019-04-07T22:05:09.374Z,6.90
2019-04-07T22:07:37.838Z,6.80
2019-04-07T22:10:07.399Z,7.20
2019-04-07T22:12:33.997Z,6.27
2019-04-07T22:15:00.586Z,7.17
2019-04-07T22:17:27.681Z,6.97
2019-04-07T22:19:54.328Z,6.47
2019-04-07T22:22:20.875Z,6.73
2019-04-07T22:24:47.611Z,6.13
2019-04-07T22:27:14.102Z,6.57
2019-04-07T22:29:40.542Z,6.07
2019-04-07T22:32:07.502Z,6.23
2019-04-07T22:34:34.133Z,5.90
2019-04-07T22:37:00.615Z,5.77
2019-04-07T22:39:28.849Z,5.90
2019-04-07T22:41:56.981Z,5.90
2019-04-07T22:44:24.417Z,5.10
2019-04-07T22:46:52.287Z,5.80
2019-04-07T22:49:19.768Z,5.80
2019-04-07T22:51:47.545Z,5.97
2019-04-07T22:54:14.956Z,5.90
2019-04-07T22:56:42.468Z,5.70
2019-04-07T22:59:10.457Z,5.30
2019-04-07T23:01:37.446Z,5.20
2019-04-07T23:04:03.920Z,5.47
2019-04-07T23:06:30.315Z,5.40
2019-04-07T23:08:57.363Z,5.80
2019-04-07T23:11:23.868Z,5.57
2019-04-07T23:13:51.302Z,5.73
2019-04-07T23:16:18.862Z,6.13
2019-04-07T23:18:46.499Z,5.47
2019-04-07T23:21:13.020Z,5.80
2019-04-07T23:23:39.853Z,5.73
2019-04-07T23:26:07.333Z,5.10
2019-04-07T23:28:34.762Z,5.70
2019-04-07T23:31:01.328Z,5.20
2019-04-07T23:33:27.908Z,5.60
2019-04-07T23:35:55.408Z,5.67
2019-04-07T23:38:22.045Z,5.67
2019-04-07T23:40:49.337Z,5.80
2019-04-07T23:43:15.892Z,5.70
2019-04-07T23:45:42.380Z,5.30
2019-04-07T23:48:08.934Z,5.27
2019-04-07T23:50:35.647Z,5.30
2019-04-07T23:53:06.951Z,5.57
2019-04-07T23:55:33.517Z,5.30
2019-04-07T23:58:00.632Z,5.30
